sensor_id;sensor_type;location;lat;lon;timestamp;pressure;altitude;pressure_sealevel;temperature;humidity
14885;BME280;7534;50.762;7.000;2022-10-16T00:01:14;150281.72;;;15.74;94.68
14885;BME280;7534;50.762;7.000;2022-10-16T00:03:42;150281.72;;;15.74;94.91
14885;BME280;7534;50.762;7.000;2022-10-16T00:06:10;150284.38;;;15.75;94.56
14885;BME280;7534;50.762;7.000;2022-10-16T00:08:37;150269.91;;;15.69;95.20
14885;BME280;7534;50.762;7.000;2022-10-16T00:11:11;150273.88;;;15.71;95.01
14885;BME280;7534;50.762;7.000;2022-10-16T00:13:40;150262.00;;;15.66;95.06
14885;BME280;7534;50.762;7.000;2022-10-16T00:16:07;150252.84;;;15.62;95.50
14885;BME280;7534;50.762;7.000;2022-10-16T00:18:33;150239.66;;;15.57;95.27
14885;BME280;7534;50.762;7.000;2022-10-16T00:21:13;150222.53;;;15.51;95.77
14885;BME280;7534;50.762;7.000;2022-10-16T00:23:40;150213.38;;;15.47;95.89
14885;BME280;7534;50.762;7.000;2022-10-16T00:26:10;150202.84;;;15.43;96.25
14885;BME280;7534;50.762;7.000;2022-10-16T00:28:37;150192.34;;;15.39;96.59
14885;BME280;7534;50.762;7.000;2022-10-16T00:31:11;150151.63;;;15.23;97.93
14885;BME280;7534;50.762;7.000;2022-10-16T00:33:39;150130.59;;;15.15;98.64
14885;BME280;7534;50.762;7.000;2022-10-16T00:36:07;150145.03;;;15.21;99.00
14885;BME280;7534;50.762;7.000;2022-10-16T00:38:35;150158.16;;;15.26;98.55
14885;BME280;7534;50.762;7.000;2022-10-16T00:41:00;150164.72;;;15.28;98.15
14885;BME280;7534;50.762;7.000;2022-10-16T00:43:55;150131.91;;;15.16;98.82
14885;BME280;7534;50.762;7.000;2022-10-16T00:46:35;150112.16;;;15.08;99.31
14885;BME280;7534;50.762;7.000;2022-10-16T00:49:13;150125.31;;;15.13;99.22
14885;BME280;7534;50.762;7.000;2022-10-16T00:51:50;150109.56;;;15.07;99.44
14885;BME280;7534;50.762;7.000;2022-10-16T00:54:21;150074.06;;;14.94;99.96
14885;BME280;7534;50.762;7.000;2022-10-16T00:56:49;150058.31;;;14.87;100.00
14885;BME280;7534;50.762;7.000;2022-10-16T00:59:24;150049.09;;;14.84;100.00
14885;BME280;7534;50.762;7.000;2022-10-16T01:01:52;150047.84;;;14.83;100.00
14885;BME280;7534;50.762;7.000;2022-10-16T01:04:18;150055.69;;;14.86;100.00
14885;BME280;7534;50.762;7.000;2022-10-16T01:15:41;149937.50;;;14.41;100.00
14885;BME280;7534;50.762;7.000;2022-10-16T01:20:54;149913.81;;;14.32;100.00
14885;BME280;7534;50.762;7.000;2022-10-16T01:23:36;149896.75;;;14.25;100.00
14885;BME280;7534;50.762;7.000;2022-10-16T01:26:36;149908.56;;;14.30;100.00
14885;BME280;7534;50.762;7.000;2022-10-16T01:29:16;149912.50;;;14.31;100.00
14885;BME280;7534;50.762;7.000;2022-10-16T01:31:48;149905.91;;;14.29;100.00
14885;BME280;7534;50.762;7.000;2022-10-16T01:34:22;149903.28;;;14.28;100.00
14885;BME280;7534;50.762;7.000;2022-10-16T01:36:56;149900.72;;;14.27;100.00
14885;BME280;7534;50.762;7.000;2022-10-16T01:39:32;149890.19;;;14.23;100.00
14885;BME280;7534;50.762;7.000;2022-10-16T01:42:09;149884.91;;;14.21;100.00
14885;BME280;7534;50.762;7.000;2022-10-16T01:44:39;149874.44;;;14.17;100.00
14885;BME280;7534;50.762;7.000;2022-10-16T01:47:09;149879.72;;;14.19;100.00
14885;BME280;7534;50.762;7.000;2022-10-16T01:49:39;149892.81;;;14.24;100.00
14885;BME280;7534;50.762;7.000;2022-10-16T01:52:13;149898.06;;;14.26;100.00
14885;BME280;7534;50.762;7.000;2022-10-16T01:54:46;149899.41;;;14.26;100.00
14885;BME280;7534;50.762;7.000;2022-10-16T01:57:14;149901.97;;;14.27;100.00
14885;BME280;7534;50.762;7.000;2022-10-16T01:59:48;149907.25;;;14.29;100.00
14885;BME280;7534;50.762;7.000;2022-10-16T02:02:19;149922.97;;;14.35;100.00
14885;BME280;7534;50.762;7.000;2022-10-16T02:05:07;149954.56;;;14.47;100.00
14885;BME280;7534;50.762;7.000;2022-10-16T02:07:36;149959.84;;;14.49;100.00
14885;BME280;7534;50.762;7.000;2022-10-16T02:10:03;149992.63;;;14.62;98.83
14885;BME280;7534;50.762;7.000;2022-10-16T02:12:36;150003.19;;;14.66;98.10
14885;BME280;7534;50.762;7.000;2022-10-16T02:15:06;150032.03;;;14.77;97.75
14885;BME280;7534;50.762;7.000;2022-10-16T02:17:32;150050.41;;;14.84;97.45
14885;BME280;7534;50.762;7.000;2022-10-16T02:19:59;150075.38;;;14.94;96.31
14885;BME280;7534;50.762;7.000;2022-10-16T02:22:46;150083.28;;;14.97;95.92
14885;BME280;7534;50.762;7.000;2022-10-16T02:25:35;150108.25;;;15.07;95.50
14885;BME280;7534;50.762;7.000;2022-10-16T02:28:16;150127.97;;;15.14;94.63
14885;BME280;7534;50.762;7.000;2022-10-16T02:30:57;150143.72;;;15.20;95.16
14885;BME280;7534;50.762;7.000;2022-10-16T02:33:26;150142.41;;;15.20;94.99
14885;BME280;7534;50.762;7.000;2022-10-16T02:35:55;150167.38;;;15.30;94.94
14885;BME280;7534;50.762;7.000;2022-10-16T02:38:24;150172.63;;;15.32;94.37
14885;BME280;7534;50.762;7.000;2022-10-16T02:40:51;150179.16;;;15.34;94.37
14885;BME280;7534;50.762;7.000;2022-10-16T02:43:18;150189.72;;;15.38;94.16
14885;BME280;7534;50.762;7.000;2022-10-16T02:45:43;150206.78;;;15.45;93.77
14885;BME280;7534;50.762;7.000;2022-10-16T02:48:09;150202.84;;;15.43;93.04
14885;BME280;7534;50.762;7.000;2022-10-16T02:50:35;150201.50;;;15.43;92.96
14885;BME280;7534;50.762;7.000;2022-10-16T02:53:01;150213.38;;;15.47;93.11
14885;BME280;7534;50.762;7.000;2022-10-16T02:55:27;150226.50;;;15.52;92.66
14885;BME280;7534;50.762;7.000;2022-10-16T02:57:53;150237.09;;;15.56;92.67
14885;BME280;7534;50.762;7.000;2022-10-16T03:00:19;150231.81;;;15.54;92.60
14885;BME280;7534;50.762;7.000;2022-10-16T03:02:46;150241.00;;;15.58;92.83
14885;BME280;7534;50.762;7.000;2022-10-16T03:05:12;150230.50;;;15.54;92.91
14885;BME280;7534;50.762;7.000;2022-10-16T03:07:39;150248.88;;;15.61;92.47
14885;BME280;7534;50.762;7.000;2022-10-16T03:10:05;150248.88;;;15.61;92.50
14885;BME280;7534;50.762;7.000;2022-10-16T03:12:31;150255.47;;;15.63;92.43
14885;BME280;7534;50.762;7.000;2022-10-16T03:14:57;150271.25;;;15.70;92.03
14885;BME280;7534;50.762;7.000;2022-10-16T03:17:24;150281.72;;;15.74;91.69
14885;BME280;7534;50.762;7.000;2022-10-16T03:19:50;150284.38;;;15.75;91.82
14885;BME280;7534;50.762;7.000;2022-10-16T03:22:16;150269.91;;;15.69;91.48
14885;BME280;7534;50.762;7.000;2022-10-16T03:24:41;150273.88;;;15.71;91.92
14885;BME280;7534;50.762;7.000;2022-10-16T03:27:08;150254.16;;;15.63;91.91
14885;BME280;7534;50.762;7.000;2022-10-16T03:29:34;150241.00;;;15.58;92.33
14885;BME280;7534;50.762;7.000;2022-10-16T03:32:00;150246.25;;;15.60;91.99
14885;BME280;7534;50.762;7.000;2022-10-16T03:34:26;150271.25;;;15.70;91.77
14885;BME280;7534;50.762;7.000;2022-10-16T03:36:54;150263.34;;;15.67;91.70
14885;BME280;7534;50.762;7.000;2022-10-16T03:39:20;150273.88;;;15.71;91.44
14885;BME280;7534;50.762;7.000;2022-10-16T03:41:45;150279.16;;;15.73;91.13
14885;BME280;7534;50.762;7.000;2022-10-16T03:44:14;150269.91;;;15.69;91.55
14885;BME280;7534;50.762;7.000;2022-10-16T03:46:40;150265.97;;;15.68;91.78
14885;BME280;7534;50.762;7.000;2022-10-16T03:49:06;150271.25;;;15.70;91.54
14885;BME280;7534;50.762;7.000;2022-10-16T03:51:32;150244.94;;;15.59;91.98
14885;BME280;7534;50.762;7.000;2022-10-16T03:53:57;150259.38;;;15.65;91.62
14885;BME280;7534;50.762;7.000;2022-10-16T03:56:23;150292.28;;;15.78;91.08
14885;BME280;7534;50.762;7.000;2022-10-16T03:58:49;150300.19;;;15.81;90.92
14885;BME280;7534;50.762;7.000;2022-10-16T04:01:14;150311.97;;;15.85;90.63
14885;BME280;7534;50.762;7.000;2022-10-16T04:03:40;150289.63;;;15.77;90.60
14885;BME280;7534;50.762;7.000;2022-10-16T04:06:06;150308.03;;;15.84;90.54
14885;BME280;7534;50.762;7.000;2022-10-16T04:08:32;150293.59;;;15.78;90.99
14885;BME280;7534;50.762;7.000;2022-10-16T04:11:00;150288.31;;;15.76;90.82
14885;BME280;7534;50.762;7.000;2022-10-16T04:13:26;150290.94;;;15.77;90.86
14885;BME280;7534;50.762;7.000;2022-10-16T04:15:52;150308.03;;;15.84;90.59
14885;BME280;7534;50.762;7.000;2022-10-16T04:18:18;150315.94;;;15.87;90.58
14885;BME280;7534;50.762;7.000;2022-10-16T04:20:44;150302.75;;;15.82;90.32
14885;BME280;7534;50.762;7.000;2022-10-16T04:23:09;150300.19;;;15.81;90.50
14885;BME280;7534;50.762;7.000;2022-10-16T04:25:35;150304.06;;;15.82;90.80
14885;BME280;7534;50.762;7.000;2022-10-16T04:28:01;150310.66;;;15.85;90.38
14885;BME280;7534;50.762;7.000;2022-10-16T04:30:27;150313.31;;;15.86;90.42
14885;BME280;7534;50.762;7.000;2022-10-16T04:32:52;150311.97;;;15.85;90.58
14885;BME280;7534;50.762;7.000;2022-10-16T04:35:20;150304.06;;;15.82;90.65
14885;BME280;7534;50.762;7.000;2022-10-16T04:37:46;150285.69;;;15.75;90.93
14885;BME280;7534;50.762;7.000;2022-10-16T04:40:13;150264.66;;;15.67;91.41
14885;BME280;7534;50.762;7.000;2022-10-16T04:42:39;150263.34;;;15.67;92.05
14885;BME280;7534;50.762;7.000;2022-10-16T04:45:05;150258.13;;;15.64;91.88
14885;BME280;7534;50.762;7.000;2022-10-16T04:47:31;150254.16;;;15.63;92.38
14885;BME280;7534;50.762;7.000;2022-10-16T04:49:57;150271.25;;;15.70;92.10
14885;BME280;7534;50.762;7.000;2022-10-16T04:52:25;150268.59;;;15.69;92.40
14885;BME280;7534;50.762;7.000;2022-10-16T04:54:52;150250.22;;;15.61;92.82
14885;BME280;7534;50.762;7.000;2022-10-16T04:57:19;150262.00;;;15.66;92.37
14885;BME280;7534;50.762;7.000;2022-10-16T04:59:46;150272.56;;;15.70;92.04
14885;BME280;7534;50.762;7.000;2022-10-16T05:02:11;150260.69;;;15.65;92.06
14885;BME280;7534;50.762;7.000;2022-10-16T05:04:37;150260.69;;;15.65;92.11
14885;BME280;7534;50.762;7.000;2022-10-16T05:07:03;150272.56;;;15.70;91.92
14885;BME280;7534;50.762;7.000;2022-10-16T05:09:28;150273.88;;;15.71;91.64
14885;BME280;7534;50.762;7.000;2022-10-16T05:11:54;150271.25;;;15.70;91.82
14885;BME280;7534;50.762;7.000;2022-10-16T05:14:20;150265.97;;;15.68;91.76
14885;BME280;7534;50.762;7.000;2022-10-16T05:16:45;150256.78;;;15.64;91.91
14885;BME280;7534;50.762;7.000;2022-10-16T05:19:13;150241.00;;;15.58;92.34
14885;BME280;7534;50.762;7.000;2022-10-16T05:21:40;150221.22;;;15.50;92.77
14885;BME280;7534;50.762;7.000;2022-10-16T05:24:06;150208.09;;;15.45;93.06
14885;BME280;7534;50.762;7.000;2022-10-16T05:26:32;150205.47;;;15.44;93.17
14885;BME280;7534;50.762;7.000;2022-10-16T05:28:58;150206.78;;;15.45;93.48
14885;BME280;7534;50.762;7.000;2022-10-16T05:31:23;150206.78;;;15.45;93.14
14885;BME280;7534;50.762;7.000;2022-10-16T05:33:49;150221.22;;;15.50;93.63
14885;BME280;7534;50.762;7.000;2022-10-16T05:36:16;150250.22;;;15.61;92.71
14885;BME280;7534;50.762;7.000;2022-10-16T05:38:44;150230.50;;;15.54;92.63
14885;BME280;7534;50.762;7.000;2022-10-16T05:41:09;150227.81;;;15.53;93.20
14885;BME280;7534;50.762;7.000;2022-10-16T05:43:35;150244.94;;;15.59;92.62
14885;BME280;7534;50.762;7.000;2022-10-16T05:46:04;150252.84;;;15.62;92.26
14885;BME280;7534;50.762;7.000;2022-10-16T05:48:31;150248.88;;;15.61;92.09
14885;BME280;7534;50.762;7.000;2022-10-16T05:51:07;150227.81;;;15.53;92.49
14885;BME280;7534;50.762;7.000;2022-10-16T05:53:36;150225.19;;;15.52;92.51
14885;BME280;7534;50.762;7.000;2022-10-16T05:56:06;150223.84;;;15.51;92.90
14885;BME280;7534;50.762;7.000;2022-10-16T05:58:35;150219.91;;;15.50;92.82
14885;BME280;7534;50.762;7.000;2022-10-16T06:01:06;150213.38;;;15.47;93.11
14885;BME280;7534;50.762;7.000;2022-10-16T06:03:34;150197.56;;;15.41;93.61
14885;BME280;7534;50.762;7.000;2022-10-16T06:06:18;150200.19;;;15.42;93.89
14885;BME280;7534;50.762;7.000;2022-10-16T06:08:46;150197.56;;;15.41;93.75
14885;BME280;7534;50.762;7.000;2022-10-16T06:11:18;150192.34;;;15.39;94.13
14885;BME280;7534;50.762;7.000;2022-10-16T06:13:44;150187.06;;;15.37;94.38
14885;BME280;7534;50.762;7.000;2022-10-16T06:16:14;150166.03;;;15.29;94.68
14885;BME280;7534;50.762;7.000;2022-10-16T06:18:39;150156.84;;;15.25;95.13
14885;BME280;7534;50.762;7.000;2022-10-16T06:21:17;150148.97;;;15.22;95.09
14885;BME280;7534;50.762;7.000;2022-10-16T06:23:43;150122.69;;;15.12;96.06
14885;BME280;7534;50.762;7.000;2022-10-16T06:26:14;150070.13;;;14.92;96.97
14885;BME280;7534;50.762;7.000;2022-10-16T06:28:41;150064.91;;;14.90;97.79
14885;BME280;7534;50.762;7.000;2022-10-16T06:31:10;150045.19;;;14.82;98.14
14885;BME280;7534;50.762;7.000;2022-10-16T06:33:38;150024.19;;;14.74;99.87
14885;BME280;7534;50.762;7.000;2022-10-16T06:36:14;150039.94;;;14.80;100.00
14885;BME280;7534;50.762;7.000;2022-10-16T06:38:41;150063.59;;;14.89;99.73
14885;BME280;7534;50.762;7.000;2022-10-16T06:41:15;150083.28;;;14.97;99.68
14885;BME280;7534;50.762;7.000;2022-10-16T06:43:42;150108.25;;;15.07;99.70
14885;BME280;7534;50.762;7.000;2022-10-16T06:46:10;150099.03;;;15.03;100.00
14885;BME280;7534;50.762;7.000;2022-10-16T06:48:37;150143.72;;;15.20;100.00
14885;BME280;7534;50.762;7.000;2022-10-16T06:51:08;150200.19;;;15.42;99.91
14885;BME280;7534;50.762;7.000;2022-10-16T06:53:40;150246.25;;;15.60;99.37
14885;BME280;7534;50.762;7.000;2022-10-16T06:56:22;150265.97;;;15.68;97.92
14885;BME280;7534;50.762;7.000;2022-10-16T06:58:49;150304.06;;;15.82;97.94
14885;BME280;7534;50.762;7.000;2022-10-16T07:01:18;150322.47;;;15.89;96.82
14885;BME280;7534;50.762;7.000;2022-10-16T07:03:45;150336.97;;;15.95;96.29
14885;BME280;7534;50.762;7.000;2022-10-16T07:06:15;150367.19;;;16.07;95.75
14885;BME280;7534;50.762;7.000;2022-10-16T07:08:43;150394.81;;;16.17;95.13
14885;BME280;7534;50.762;7.000;2022-10-16T07:11:21;150436.88;;;16.33;95.45
14885;BME280;7534;50.762;7.000;2022-10-16T07:13:48;150471.06;;;16.47;94.44
14885;BME280;7534;50.762;7.000;2022-10-16T07:16:18;150510.63;;;16.62;93.20
14885;BME280;7534;50.762;7.000;2022-10-16T07:18:45;150531.66;;;16.70;91.63
14885;BME280;7534;50.762;7.000;2022-10-16T07:21:17;150515.84;;;16.64;90.77
14885;BME280;7534;50.762;7.000;2022-10-16T07:23:45;150531.66;;;16.70;90.52
14885;BME280;7534;50.762;7.000;2022-10-16T07:26:11;150572.44;;;16.86;89.63
14885;BME280;7534;50.762;7.000;2022-10-16T07:28:38;150563.22;;;16.82;89.34
14885;BME280;7534;50.762;7.000;2022-10-16T07:31:12;150548.75;;;16.76;88.92
14885;BME280;7534;50.762;7.000;2022-10-16T07:33:41;150534.25;;;16.71;89.34
14885;BME280;7534;50.762;7.000;2022-10-16T07:36:08;150535.56;;;16.71;89.66
14885;BME280;7534;50.762;7.000;2022-10-16T07:38:34;150552.72;;;16.78;89.61
14885;BME280;7534;50.762;7.000;2022-10-16T07:41:09;150564.53;;;16.83;89.59
14885;BME280;7534;50.762;7.000;2022-10-16T07:43:37;150584.28;;;16.90;89.75
14885;BME280;7534;50.762;7.000;2022-10-16T07:46:03;150589.53;;;16.92;89.46
14885;BME280;7534;50.762;7.000;2022-10-16T07:48:32;150626.38;;;17.06;88.99
14885;BME280;7534;50.762;7.000;2022-10-16T07:51:01;150659.25;;;17.19;87.90
14885;BME280;7534;50.762;7.000;2022-10-16T07:53:27;150673.75;;;17.25;87.30
14885;BME280;7534;50.762;7.000;2022-10-16T07:56:01;150689.53;;;17.31;86.74
14885;BME280;7534;50.762;7.000;2022-10-16T07:58:28;150698.78;;;17.34;86.64
14885;BME280;7534;50.762;7.000;2022-10-16T08:00:55;150698.78;;;17.34;86.12
14885;BME280;7534;50.762;7.000;2022-10-16T08:03:22;150694.81;;;17.33;85.82
14885;BME280;7534;50.762;7.000;2022-10-16T08:05:47;150657.97;;;17.19;86.09
14885;BME280;7534;50.762;7.000;2022-10-16T08:08:14;150638.19;;;17.11;86.11
14885;BME280;7534;50.762;7.000;2022-10-16T08:10:41;150596.09;;;16.95;87.30
14885;BME280;7534;50.762;7.000;2022-10-16T08:13:07;150557.94;;;16.80;88.04
14885;BME280;7534;50.762;7.000;2022-10-16T08:15:32;150551.41;;;16.77;88.49
14885;BME280;7534;50.762;7.000;2022-10-16T08:18:01;150577.69;;;16.88;89.24
14885;BME280;7534;50.762;7.000;2022-10-16T08:20:29;150676.41;;;17.26;90.79
14885;BME280;7534;50.762;7.000;2022-10-16T08:22:55;151150.63;;;19.08;88.10
14885;BME280;7534;50.762;7.000;2022-10-16T08:25:23;151727.28;;;21.29;74.29
14885;BME280;7534;50.762;7.000;2022-10-16T08:27:50;151875.19;;;21.86;66.71
14885;BME280;7534;50.762;7.000;2022-10-16T08:30:18;151922.81;;;22.04;63.72
14885;BME280;7534;50.762;7.000;2022-10-16T08:32:45;152203.00;;;23.12;59.77
14885;BME280;7534;50.762;7.000;2022-10-16T08:35:12;152614.59;;;24.69;54.14
14885;BME280;7534;50.762;7.000;2022-10-16T08:37:38;152867.59;;;25.66;50.54
14885;BME280;7534;50.762;7.000;2022-10-16T08:40:11;153004.09;;;26.18;48.10
14885;BME280;7534;50.762;7.000;2022-10-16T08:48:47;153779.06;;;29.14;40.96
14885;BME280;7534;50.762;7.000;2022-10-16T08:51:24;153646.22;;;28.64;40.25
14885;BME280;7534;50.762;7.000;2022-10-16T08:53:57;153444.47;;;27.87;41.32
14885;BME280;7534;50.762;7.000;2022-10-16T08:56:25;153228.19;;;27.04;42.86
14885;BME280;7534;50.762;7.000;2022-10-16T08:58:53;152977.59;;;26.08;45.42
14885;BME280;7534;50.762;7.000;2022-10-16T09:01:22;152728.50;;;25.13;48.47
14885;BME280;7534;50.762;7.000;2022-10-16T09:06:50;152312.84;;;23.54;52.38
14885;BME280;7534;50.762;7.000;2022-10-16T09:09:58;152225.50;;;23.20;54.06
14885;BME280;7534;50.762;7.000;2022-10-16T09:13:09;152212.28;;;23.15;55.17
14885;BME280;7534;50.762;7.000;2022-10-16T09:18:51;152843.72;;;25.57;48.17
14885;BME280;7534;50.762;7.000;2022-10-16T09:21:29;153289.19;;;27.27;42.77
14885;BME280;7534;50.762;7.000;2022-10-16T09:24:10;153375.47;;;27.60;41.77
14885;BME280;7534;50.762;7.000;2022-10-16T09:26:37;153325.00;;;27.41;41.41
14885;BME280;7534;50.762;7.000;2022-10-16T09:29:03;153188.38;;;26.89;42.58
14885;BME280;7534;50.762;7.000;2022-10-16T09:31:29;153424.56;;;27.79;40.44
14885;BME280;7534;50.762;7.000;2022-10-16T09:34:03;153380.78;;;27.62;40.28
14885;BME280;7534;50.762;7.000;2022-10-16T09:36:42;153165.84;;;26.80;41.04
14885;BME280;7534;50.762;7.000;2022-10-16T09:39:11;152993.47;;;26.14;43.23
14885;BME280;7534;50.762;7.000;2022-10-16T09:41:44;152968.28;;;26.05;42.46
14885;BME280;7534;50.762;7.000;2022-10-16T09:44:30;152990.81;;;26.13;42.93
14885;BME280;7534;50.762;7.000;2022-10-16T09:47:16;153041.25;;;26.33;41.95
14885;BME280;7534;50.762;7.000;2022-10-16T09:50:05;152906.00;;;25.81;44.20
14885;BME280;7534;50.762;7.000;2022-10-16T09:52:44;152829.16;;;25.52;44.60
14885;BME280;7534;50.762;7.000;2022-10-16T09:55:16;152666.19;;;24.89;44.80
14885;BME280;7534;50.762;7.000;2022-10-16T09:57:53;152454.38;;;24.08;45.10
14885;BME280;7534;50.762;7.000;2022-10-16T10:00:23;152404.13;;;23.89;46.97
14885;BME280;7534;50.762;7.000;2022-10-16T10:02:49;152377.66;;;23.79;48.46
14885;BME280;7534;50.762;7.000;2022-10-16T10:05:25;152326.09;;;23.59;49.08
14885;BME280;7534;50.762;7.000;2022-10-16T10:08:03;152279.75;;;23.41;49.89
14885;BME280;7534;50.762;7.000;2022-10-16T10:10:42;152159.38;;;22.95;49.72
14885;BME280;7534;50.762;7.000;2022-10-16T10:13:23;152150.16;;;22.92;49.36
14885;BME280;7534;50.762;7.000;2022-10-16T10:15:51;152070.81;;;22.61;49.14
14885;BME280;7534;50.762;7.000;2022-10-16T10:18:22;151991.47;;;22.31;51.25
14885;BME280;7534;50.762;7.000;2022-10-16T10:21:03;151969.00;;;22.22;52.64
14885;BME280;7534;50.762;7.000;2022-10-16T10:23:31;151996.78;;;22.33;52.59
14885;BME280;7534;50.762;7.000;2022-10-16T10:26:07;151949.19;;;22.15;50.25
14885;BME280;7534;50.762;7.000;2022-10-16T10:29:05;151976.97;;;22.25;50.82
14885;BME280;7534;50.762;7.000;2022-10-16T10:40:38;152443.81;;;24.04;46.27
14885;BME280;7534;50.762;7.000;2022-10-16T10:44:13;152551.03;;;24.45;45.71
14885;BME280;7534;50.762;7.000;2022-10-16T10:46:39;152520.59;;;24.33;44.58
14885;BME280;7534;50.762;7.000;2022-10-16T10:49:42;152482.16;;;24.19;44.62
14885;BME280;7534;50.762;7.000;2022-10-16T10:52:52;152390.88;;;23.84;45.98
14885;BME280;7534;50.762;7.000;2022-10-16T10:55:40;152335.31;;;23.63;46.39
14885;BME280;7534;50.762;7.000;2022-10-16T10:58:48;152257.25;;;23.33;45.07
14885;BME280;7534;50.762;7.000;2022-10-16T11:01:44;152229.47;;;23.22;47.62
14885;BME280;7534;50.762;7.000;2022-10-16T11:04:49;152236.09;;;23.25;49.89
14885;BME280;7534;50.762;7.000;2022-10-16T11:07:37;152266.47;;;23.36;48.52
14885;BME280;7534;50.762;7.000;2022-10-16T11:10:18;152274.44;;;23.39;46.44
14885;BME280;7534;50.762;7.000;2022-10-16T11:12:58;152319.47;;;23.56;46.66
14885;BME280;7534;50.762;7.000;2022-10-16T11:15:36;152348.53;;;23.68;45.39
14885;BME280;7534;50.762;7.000;2022-10-16T11:20:52;152421.31;;;23.95;44.93
14885;BME280;7534;50.762;7.000;2022-10-16T11:23:30;152431.91;;;24.00;43.98
14885;BME280;7534;50.762;7.000;2022-10-16T11:26:02;152446.47;;;24.05;44.15
14885;BME280;7534;50.762;7.000;2022-10-16T11:28:39;152445.13;;;24.05;44.47
14885;BME280;7534;50.762;7.000;2022-10-16T11:33:59;152484.81;;;24.20;43.63
14885;BME280;7534;50.762;7.000;2022-10-16T11:37:09;152586.78;;;24.59;43.41
14885;BME280;7534;50.762;7.000;2022-10-16T11:39:29;152674.19;;;24.92;43.42
14885;BME280;7534;50.762;7.000;2022-10-16T11:42:18;152713.91;;;25.07;43.03
14885;BME280;7534;50.762;7.000;2022-10-16T11:45:46;152605.28;;;24.66;42.79
14885;BME280;7534;50.762;7.000;2022-10-16T11:47:57;152741.75;;;25.18;42.75
14885;BME280;7534;50.762;7.000;2022-10-16T11:50:39;152700.69;;;25.02;41.64
14885;BME280;7534;50.762;7.000;2022-10-16T11:53:21;152716.56;;;25.08;41.60
14885;BME280;7534;50.762;7.000;2022-10-16T11:55:49;152741.75;;;25.18;40.64
14885;BME280;7534;50.762;7.000;2022-10-16T11:58:25;152712.59;;;25.07;42.05
14885;BME280;7534;50.762;7.000;2022-10-16T12:06:31;152686.13;;;24.97;43.00
14885;BME280;7534;50.762;7.000;2022-10-16T12:09:00;152708.59;;;25.05;42.00
14885;BME280;7534;50.762;7.000;2022-10-16T12:17:01;152672.88;;;24.92;42.33
14885;BME280;7534;50.762;7.000;2022-10-16T12:19:31;152769.56;;;25.29;41.24
14885;BME280;7534;50.762;7.000;2022-10-16T12:22:01;152845.03;;;25.58;41.22
14885;BME280;7534;50.762;7.000;2022-10-16T12:24:51;152900.69;;;25.79;41.87
14885;BME280;7534;50.762;7.000;2022-10-16T12:27:30;152928.53;;;25.90;40.81
14885;BME280;7534;50.762;7.000;2022-10-16T12:30:03;152911.31;;;25.83;40.61
14885;BME280;7534;50.762;7.000;2022-10-16T12:32:32;152978.91;;;26.09;41.04
14885;BME280;7534;50.762;7.000;2022-10-16T12:35:02;152996.13;;;26.15;39.69
14885;BME280;7534;50.762;7.000;2022-10-16T12:37:38;153012.00;;;26.21;40.16
14885;BME280;7534;50.762;7.000;2022-10-16T12:40:32;152947.09;;;25.97;40.02
14885;BME280;7534;50.762;7.000;2022-10-16T12:43:13;152827.81;;;25.51;41.85
14885;BME280;7534;50.762;7.000;2022-10-16T12:46:22;152688.75;;;24.98;43.70
14885;BME280;7534;50.762;7.000;2022-10-16T12:48:46;152557.69;;;24.48;45.07
14885;BME280;7534;50.762;7.000;2022-10-16T12:54:16;152593.41;;;24.61;45.90
14885;BME280;7534;50.762;7.000;2022-10-16T13:11:25;152768.22;;;25.28;44.13
14885;BME280;7534;50.762;7.000;2022-10-16T13:14:08;152733.78;;;25.15;44.61
14885;BME280;7534;50.762;7.000;2022-10-16T13:26:42;152648.97;;;24.83;45.46
14885;BME280;7534;50.762;7.000;2022-10-16T13:29:13;152687.41;;;24.97;45.71
14885;BME280;7534;50.762;7.000;2022-10-16T13:31:42;152651.63;;;24.84;45.52
14885;BME280;7534;50.762;7.000;2022-10-16T13:34:22;152715.25;;;25.08;45.88
14885;BME280;7534;50.762;7.000;2022-10-16T13:36:51;152635.75;;;24.78;45.52
14885;BME280;7534;50.762;7.000;2022-10-16T13:39:29;152596.06;;;24.62;46.40
14885;BME280;7534;50.762;7.000;2022-10-16T13:42:33;152559.00;;;24.48;46.50
14885;BME280;7534;50.762;7.000;2022-10-16T13:44:59;152516.66;;;24.32;46.81
14885;BME280;7534;50.762;7.000;2022-10-16T13:47:28;152508.69;;;24.29;47.21
14885;BME280;7534;50.762;7.000;2022-10-16T13:50:11;152488.84;;;24.21;47.82
14885;BME280;7534;50.762;7.000;2022-10-16T13:52:38;152439.81;;;24.03;48.48
14885;BME280;7534;50.762;7.000;2022-10-16T13:55:13;152378.97;;;23.79;48.89
14885;BME280;7534;50.762;7.000;2022-10-16T13:57:39;152382.97;;;23.81;48.83
14885;BME280;7534;50.762;7.000;2022-10-16T14:00:38;152376.31;;;23.78;49.42
14885;BME280;7534;50.762;7.000;2022-10-16T14:03:11;152431.91;;;24.00;48.94
14885;BME280;7534;50.762;7.000;2022-10-16T14:05:55;152400.16;;;23.87;49.12
14885;BME280;7534;50.762;7.000;2022-10-16T14:08:23;152344.59;;;23.66;50.56
14885;BME280;7534;50.762;7.000;2022-10-16T14:10:54;152347.25;;;23.67;49.97
14885;BME280;7534;50.762;7.000;2022-10-16T14:13:44;152299.63;;;23.49;50.82
14885;BME280;7534;50.762;7.000;2022-10-16T14:16:20;152304.94;;;23.51;51.61
14885;BME280;7534;50.762;7.000;2022-10-16T14:19:01;152287.66;;;23.44;51.29
14885;BME280;7534;50.762;7.000;2022-10-16T14:21:28;152279.75;;;23.41;51.50
14885;BME280;7534;50.762;7.000;2022-10-16T14:23:55;152228.16;;;23.21;51.97
14885;BME280;7534;50.762;7.000;2022-10-16T14:26:26;152224.16;;;23.20;52.58
14885;BME280;7534;50.762;7.000;2022-10-16T14:29:13;152205.66;;;23.13;52.36
14885;BME280;7534;50.762;7.000;2022-10-16T14:31:40;152175.28;;;23.01;52.77
14885;BME280;7534;50.762;7.000;2022-10-16T14:34:52;152188.50;;;23.06;53.44
14885;BME280;7534;50.762;7.000;2022-10-16T14:37:27;152148.84;;;22.91;53.75
14885;BME280;7534;50.762;7.000;2022-10-16T14:39:55;152189.81;;;23.07;53.97
14885;BME280;7534;50.762;7.000;2022-10-16T14:42:24;152158.06;;;22.95;54.11
14885;BME280;7534;50.762;7.000;2022-10-16T14:44:53;152163.34;;;22.97;54.11